sensor_id;sensor_type;location;lat;lon;timestamp;pressure;altitude;pressure_sealevel;temperature;humidity
47260;BME280;32999;52.412;4.890;2024-03-08T00:00:17;101874.28;;;3.61;100.00
47260;BME280;32999;52.412;4.890;2024-03-08T00:05:19;101943.28;;;4.26;100.00
47260;BME280;32999;52.412;4.890;2024-03-08T00:10:23;101835.13;;;3.66;100.00
47260;BME280;32999;52.412;4.890;2024-03-08T00:15:25;101823.50;;;3.33;100.00
47260;BME280;32999;52.412;4.890;2024-03-08T00:20:27;101791.41;;;3.27;100.00
47260;BME280;32999;52.412;4.890;2024-03-08T00:25:30;101870.22;;;3.68;100.00
47260;BME280;32999;52.412;4.890;2024-03-08T00:30:32;101937.88;;;4.17;100.00
47260;BME280;32999;52.412;4.890;2024-03-08T00:35:34;101931.63;;;4.18;100.00
47260;BME280;32999;52.412;4.890;2024-03-08T00:40:37;101933.19;;;4.20;100.00
47260;BME280;32999;52.412;4.890;2024-03-08T00:45:42;101929.94;;;4.17;100.00
47260;BME280;32999;52.412;4.890;2024-03-08T00:50:44;101925.09;;;4.22;100.00
47260;BME280;32999;52.412;4.890;2024-03-08T00:55:47;101819.88;;;3.81;100.00
47260;BME280;32999;52.412;4.890;2024-03-08T01:00:49;101882.28;;;4.05;100.00
47260;BME280;32999;52.412;4.890;2024-03-08T01:05:51;101910.44;;;4.18;100.00
47260;BME280;32999;52.412;4.890;2024-03-08T01:10:54;101870.03;;;3.93;100.00
47260;BME280;32999;52.412;4.890;2024-03-08T01:15:56;101831.78;;;3.86;100.00
47260;BME280;32999;52.412;4.890;2024-03-08T01:20:57;101739.44;;;3.38;100.00
47260;BME280;32999;52.412;4.890;2024-03-08T01:26:01;101876.50;;;4.23;100.00
47260;BME280;32999;52.412;4.890;2024-03-08T01:31:03;101866.41;;;3.94;100.00
47260;BME280;32999;52.412;4.890;2024-03-08T01:36:06;101783.63;;;3.36;100.00
47260;BME280;32999;52.412;4.890;2024-03-08T01:41:10;101855.09;;;3.81;100.00
47260;BME280;32999;52.412;4.890;2024-03-08T01:46:15;101798.53;;;3.37;100.00
47260;BME280;32999;52.412;4.890;2024-03-08T01:51:19;101702.91;;;2.75;100.00
47260;BME280;32999;52.412;4.890;2024-03-08T01:56:23;101835.84;;;3.68;100.00
47260;BME280;32999;52.412;4.890;2024-03-08T02:01:25;101831.53;;;3.67;100.00
47260;BME280;32999;52.412;4.890;2024-03-08T02:06:28;101780.94;;;3.14;100.00
47260;BME280;32999;52.412;4.890;2024-03-08T02:11:31;101712.47;;;3.00;100.00
47260;BME280;32999;52.412;4.890;2024-03-08T02:16:33;101846.66;;;3.76;100.00
47260;BME280;32999;52.412;4.890;2024-03-08T02:21:36;101766.78;;;3.15;100.00
47260;BME280;32999;52.412;4.890;2024-03-08T02:26:39;101808.69;;;3.66;100.00
47260;BME280;32999;52.412;4.890;2024-03-08T02:31:42;101802.41;;;3.56;100.00
47260;BME280;32999;52.412;4.890;2024-03-08T02:36:46;101782.47;;;3.63;100.00
47260;BME280;32999;52.412;4.890;2024-03-08T02:41:47;101783.91;;;3.45;100.00
47260;BME280;32999;52.412;4.890;2024-03-08T02:46:49;101698.22;;;2.67;100.00
47260;BME280;32999;52.412;4.890;2024-03-08T02:51:53;101648.13;;;2.44;100.00
47260;BME280;32999;52.412;4.890;2024-03-08T02:56:57;101804.38;;;3.30;100.00
47260;BME280;32999;52.412;4.890;2024-03-08T03:01:59;101777.47;;;3.25;100.00
47260;BME280;32999;52.412;4.890;2024-03-08T03:07:02;101741.50;;;3.00;100.00
47260;BME280;32999;52.412;4.890;2024-03-08T03:12:05;101755.50;;;3.24;100.00
47260;BME280;32999;52.412;4.890;2024-03-08T03:17:09;101692.94;;;2.67;100.00
47260;BME280;32999;52.412;4.890;2024-03-08T03:22:13;101701.09;;;2.76;100.00
47260;BME280;32999;52.412;4.890;2024-03-08T03:27:16;101595.63;;;2.28;100.00
47260;BME280;32999;52.412;4.890;2024-03-08T03:32:18;101742.09;;;3.38;100.00
47260;BME280;32999;52.412;4.890;2024-03-08T03:37:21;101678.00;;;2.90;100.00
47260;BME280;32999;52.412;4.890;2024-03-08T03:42:23;101711.44;;;3.25;100.00
47260;BME280;32999;52.412;4.890;2024-03-08T03:47:27;101696.88;;;2.97;100.00
47260;BME280;32999;52.412;4.890;2024-03-08T03:52:30;101751.16;;;3.12;100.00
47260;BME280;32999;52.412;4.890;2024-03-08T03:57:32;101710.31;;;3.05;100.00
47260;BME280;32999;52.412;4.890;2024-03-08T04:02:33;101615.63;;;2.43;100.00
47260;BME280;32999;52.412;4.890;2024-03-08T04:07:37;101608.16;;;2.37;100.00
47260;BME280;32999;52.412;4.890;2024-03-08T04:12:39;101723.13;;;2.98;100.00
47260;BME280;32999;52.412;4.890;2024-03-08T04:17:41;101714.25;;;2.99;100.00
47260;BME280;32999;52.412;4.890;2024-03-08T04:22:44;101616.06;;;2.37;100.00
47260;BME280;32999;52.412;4.890;2024-03-08T04:27:47;101694.91;;;2.88;100.00
47260;BME280;32999;52.412;4.890;2024-03-08T04:32:50;101658.56;;;2.45;100.00
47260;BME280;32999;52.412;4.890;2024-03-08T04:37:53;101676.41;;;2.42;100.00
47260;BME280;32999;52.412;4.890;2024-03-08T04:42:55;101703.72;;;2.64;100.00
47260;BME280;32999;52.412;4.890;2024-03-08T04:47:56;101699.06;;;2.68;100.00
47260;BME280;32999;52.412;4.890;2024-03-08T04:52:59;101633.13;;;2.44;100.00
47260;BME280;32999;52.412;4.890;2024-03-08T04:58:01;101691.75;;;2.71;100.00
47260;BME280;32999;52.412;4.890;2024-03-08T05:03:05;101685.25;;;2.76;100.00
47260;BME280;32999;52.412;4.890;2024-03-08T05:08:08;101684.97;;;2.56;100.00
47260;BME280;32999;52.412;4.890;2024-03-08T05:13:10;101679.25;;;2.62;100.00
47260;BME280;32999;52.412;4.890;2024-03-08T05:18:13;101614.56;;;2.22;100.00
47260;BME280;32999;52.412;4.890;2024-03-08T05:23:16;101690.91;;;2.71;100.00
47260;BME280;32999;52.412;4.890;2024-03-08T05:28:19;101635.84;;;2.66;100.00
47260;BME280;32999;52.412;4.890;2024-03-08T05:33:21;101618.81;;;2.35;100.00
47260;BME280;32999;52.412;4.890;2024-03-08T05:38:25;101641.16;;;2.43;100.00
47260;BME280;32999;52.412;4.890;2024-03-08T05:43:27;101630.06;;;2.61;100.00
47260;BME280;32999;52.412;4.890;2024-03-08T05:48:30;101621.03;;;2.53;100.00
47260;BME280;32999;52.412;4.890;2024-03-08T05:53:33;101662.47;;;2.74;100.00
47260;BME280;32999;52.412;4.890;2024-03-08T05:58:35;101662.00;;;2.81;100.00
47260;BME280;32999;52.412;4.890;2024-03-08T06:03:37;101648.09;;;2.79;100.00
47260;BME280;32999;52.412;4.890;2024-03-08T06:08:46;101651.16;;;2.61;100.00
47260;BME280;32999;52.412;4.890;2024-03-08T06:13:49;101627.06;;;2.31;100.00
47260;BME280;32999;52.412;4.890;2024-03-08T06:18:51;101635.91;;;2.54;100.00
47260;BME280;32999;52.412;4.890;2024-03-08T06:23:54;101636.78;;;2.65;100.00
47260;BME280;32999;52.412;4.890;2024-03-08T06:28:58;101628.41;;;2.83;100.00
47260;BME280;32999;52.412;4.890;2024-03-08T06:33:59;101627.41;;;2.61;100.00
47260;BME280;32999;52.412;4.890;2024-03-08T06:39:03;101635.72;;;2.79;100.00
47260;BME280;32999;52.412;4.890;2024-03-08T06:44:09;101635.13;;;2.76;100.00
47260;BME280;32999;52.412;4.890;2024-03-08T06:49:11;101605.16;;;2.88;100.00
47260;BME280;32999;52.412;4.890;2024-03-08T06:54:14;101591.19;;;2.63;100.00
47260;BME280;32999;52.412;4.890;2024-03-08T06:59:16;101577.75;;;2.55;100.00
47260;BME280;32999;52.412;4.890;2024-03-08T07:04:18;101632.50;;;2.98;100.00
47260;BME280;32999;52.412;4.890;2024-03-08T07:09:23;101606.50;;;3.04;100.00
47260;BME280;32999;52.412;4.890;2024-03-08T07:14:25;101469.28;;;2.14;100.00
47260;BME280;32999;52.412;4.890;2024-03-08T07:19:27;101612.88;;;3.13;100.00
47260;BME280;32999;52.412;4.890;2024-03-08T07:24:31;101614.53;;;3.25;100.00
47260;BME280;32999;52.412;4.890;2024-03-08T07:29:50;101603.50;;;3.09;100.00
47260;BME280;32999;52.412;4.890;2024-03-08T07:34:52;101561.47;;;3.06;100.00
47260;BME280;32999;52.412;4.890;2024-03-08T07:39:57;101548.53;;;3.14;100.00
47260;BME280;32999;52.412;4.890;2024-03-08T07:44:59;101616.31;;;3.69;100.00
47260;BME280;32999;52.412;4.890;2024-03-08T07:50:01;101544.59;;;3.63;100.00
47260;BME280;32999;52.412;4.890;2024-03-08T07:55:05;101601.66;;;4.40;100.00
47260;BME280;32999;52.412;4.890;2024-03-08T08:00:09;101589.13;;;4.63;100.00
47260;BME280;32999;52.412;4.890;2024-03-08T08:05:11;101573.09;;;4.86;100.00
47260;BME280;32999;52.412;4.890;2024-03-08T08:10:15;101492.16;;;4.72;100.00
47260;BME280;32999;52.412;4.890;2024-03-08T08:15:19;101589.94;;;5.45;100.00
47260;BME280;32999;52.412;4.890;2024-03-08T08:20:21;101606.16;;;6.40;100.00
47260;BME280;32999;52.412;4.890;2024-03-08T08:25:26;101543.88;;;6.16;100.00
47260;BME280;32999;52.412;4.890;2024-03-08T08:30:28;101475.56;;;6.18;100.00
47260;BME280;32999;52.412;4.890;2024-03-08T08:35:29;101463.41;;;6.05;100.00
47260;BME280;32999;52.412;4.890;2024-03-08T08:40:33;101578.72;;;6.69;100.00
47260;BME280;32999;52.412;4.890;2024-03-08T08:45:39;101557.56;;;7.51;100.00
47260;BME280;32999;52.412;4.890;2024-03-08T08:50:41;101547.16;;;7.58;100.00
47260;BME280;32999;52.412;4.890;2024-03-08T08:55:46;101553.13;;;7.87;100.00
47260;BME280;32999;52.412;4.890;2024-03-08T09:00:50;101404.63;;;7.73;100.00
47260;BME280;32999;52.412;4.890;2024-03-08T09:05:56;101518.00;;;8.63;100.00
47260;BME280;32999;52.412;4.890;2024-03-08T09:11:01;101515.56;;;9.70;100.00
47260;BME280;32999;52.412;4.890;2024-03-08T09:16:16;101504.78;;;10.12;100.00
47260;BME280;32999;52.412;4.890;2024-03-08T09:21:51;101380.28;;;8.71;100.00
47260;BME280;32999;52.412;4.890;2024-03-08T09:45:11;101334.94;;;9.30;100.00
47260;BME280;32999;52.412;4.890;2024-03-08T09:50:25;101367.78;;;9.79;100.00
47260;BME280;32999;52.412;4.890;2024-03-08T09:55:29;101365.41;;;10.00;100.00
47260;BME280;32999;52.412;4.890;2024-03-08T10:00:35;101477.25;;;11.30;100.00
47260;BME280;32999;52.412;4.890;2024-03-08T10:05:37;101417.22;;;10.94;100.00
47260;BME280;32999;52.412;4.890;2024-03-08T10:10:50;101469.00;;;11.09;100.00
47260;BME280;32999;52.412;4.890;2024-03-08T10:21:18;101285.25;;;10.25;100.00
47260;BME280;32999;52.412;4.890;2024-03-08T10:26:37;101408.25;;;10.86;100.00
47260;BME280;32999;52.412;4.890;2024-03-08T10:31:38;101343.44;;;11.30;100.00
47260;BME280;32999;52.412;4.890;2024-03-08T10:36:41;101387.97;;;11.91;100.00
47260;BME280;32999;52.412;4.890;2024-03-08T10:41:44;101380.31;;;12.62;100.00
47260;BME280;32999;52.412;4.890;2024-03-08T10:46:59;101281.06;;;12.41;100.00
47260;BME280;32999;52.412;4.890;2024-03-08T10:52:04;101363.25;;;11.44;100.00
47260;BME280;32999;52.412;4.890;2024-03-08T10:57:08;101326.75;;;12.33;100.00
47260;BME280;32999;52.412;4.890;2024-03-08T11:02:12;101353.59;;;12.83;100.00
47260;BME280;32999;52.412;4.890;2024-03-08T11:07:16;101339.19;;;13.06;100.00
47260;BME280;32999;52.412;4.890;2024-03-08T11:12:25;101269.28;;;12.20;100.00
47260;BME280;32999;52.412;4.890;2024-03-08T11:17:44;101301.88;;;13.81;100.00
47260;BME280;32999;52.412;4.890;2024-03-08T11:22:52;101219.00;;;12.58;100.00
47260;BME280;32999;52.412;4.890;2024-03-08T11:28:07;101190.72;;;11.17;100.00
47260;BME280;32999;52.412;4.890;2024-03-08T11:33:12;101292.72;;;12.48;100.00
47260;BME280;32999;52.412;4.890;2024-03-08T11:38:28;101202.19;;;12.29;100.00
47260;BME280;32999;52.412;4.890;2024-03-08T11:43:30;101278.78;;;12.95;100.00
47260;BME280;32999;52.412;4.890;2024-03-08T11:48:32;101271.00;;;13.00;100.00
47260;BME280;32999;52.412;4.890;2024-03-08T11:53:37;101184.13;;;12.01;100.00
47260;BME280;32999;52.412;4.890;2024-03-08T11:58:40;101205.53;;;11.72;100.00
47260;BME280;32999;52.412;4.890;2024-03-08T12:03:42;101259.09;;;12.31;100.00
47260;BME280;32999;52.412;4.890;2024-03-08T12:08:47;101249.19;;;12.46;100.00
47260;BME280;32999;52.412;4.890;2024-03-08T12:14:02;101169.03;;;12.15;100.00
47260;BME280;32999;52.412;4.890;2024-03-08T12:19:18;101204.31;;;12.33;100.00
47260;BME280;32999;52.412;4.890;2024-03-08T12:24:24;101166.63;;;11.02;100.00
47260;BME280;32999;52.412;4.890;2024-03-08T12:29:29;101174.72;;;10.71;100.00
47260;BME280;32999;52.412;4.890;2024-03-08T12:34:31;101077.91;;;10.15;100.00
47260;BME280;32999;52.412;4.890;2024-03-08T12:39:34;101159.50;;;10.26;100.00
47260;BME280;32999;52.412;4.890;2024-03-08T12:44:37;101160.50;;;10.56;100.00
47260;BME280;32999;52.412;4.890;2024-03-08T12:49:43;101160.22;;;10.43;100.00
47260;BME280;32999;52.412;4.890;2024-03-08T12:54:49;101017.63;;;9.75;100.00
47260;BME280;32999;52.412;4.890;2024-03-08T12:59:51;101135.88;;;10.83;100.00
47260;BME280;32999;52.412;4.890;2024-03-08T13:04:54;101038.38;;;10.56;100.00
47260;BME280;32999;52.412;4.890;2024-03-08T13:10:01;101074.81;;;10.35;100.00
47260;BME280;32999;52.412;4.890;2024-03-08T13:15:36;101102.91;;;11.06;100.00
47260;BME280;32999;52.412;4.890;2024-03-08T13:21:05;101051.69;;;10.42;100.00
47260;BME280;32999;52.412;4.890;2024-03-08T13:26:21;101023.13;;;10.42;100.00
47260;BME280;32999;52.412;4.890;2024-03-08T13:31:26;101030.72;;;10.39;100.00
47260;BME280;32999;52.412;4.890;2024-03-08T13:36:29;101033.81;;;10.42;100.00
47260;BME280;32999;52.412;4.890;2024-03-08T13:41:43;101048.66;;;10.97;100.00
47260;BME280;32999;52.412;4.890;2024-03-08T13:46:46;101086.28;;;10.81;100.00
47260;BME280;32999;52.412;4.890;2024-03-08T13:51:51;101077.25;;;11.26;100.00
47260;BME280;32999;52.412;4.890;2024-03-08T13:56:56;101032.91;;;11.02;100.00
47260;BME280;32999;52.412;4.890;2024-03-08T14:01:59;101057.16;;;11.01;100.00
47260;BME280;32999;52.412;4.890;2024-03-08T14:07:07;100902.56;;;10.08;100.00
47260;BME280;32999;52.412;4.890;2024-03-08T14:12:15;101032.50;;;10.76;100.00
47260;BME280;32999;52.412;4.890;2024-03-08T14:17:17;100979.69;;;10.63;100.00
47260;BME280;32999;52.412;4.890;2024-03-08T14:22:20;100885.03;;;10.43;100.00
47260;BME280;32999;52.412;4.890;2024-03-08T14:27:24;101003.50;;;10.87;100.00
47260;BME280;32999;52.412;4.890;2024-03-08T14:32:27;100949.81;;;10.74;100.00
47260;BME280;32999;52.412;4.890;2024-03-08T14:37:31;100996.91;;;10.90;100.00
47260;BME280;32999;52.412;4.890;2024-03-08T14:42:41;100986.41;;;11.03;100.00
47260;BME280;32999;52.412;4.890;2024-03-08T14:47:45;100957.38;;;11.00;100.00
47260;BME280;32999;52.412;4.890;2024-03-08T14:52:50;100823.63;;;9.90;100.00
47260;BME280;32999;52.412;4.890;2024-03-08T14:57:54;100948.91;;;10.38;100.00
47260;BME280;32999;52.412;4.890;2024-03-08T15:02:58;100869.56;;;9.86;100.00
47260;BME280;32999;52.412;4.890;2024-03-08T15:07:59;100894.69;;;10.14;100.00
47260;BME280;32999;52.412;4.890;2024-03-08T15:13:04;100868.59;;;10.02;100.00
47260;BME280;32999;52.412;4.890;2024-03-08T15:18:23;100918.31;;;10.55;100.00
47260;BME280;32999;52.412;4.890;2024-03-08T15:23:33;100878.94;;;10.19;100.00
47260;BME280;32999;52.412;4.890;2024-03-08T15:28:37;100859.13;;;9.76;100.00
47260;BME280;32999;52.412;4.890;2024-03-08T15:33:40;100915.44;;;10.04;100.00
47260;BME280;32999;52.412;4.890;2024-03-08T15:38:45;100866.72;;;9.87;100.00
47260;BME280;32999;52.412;4.890;2024-03-08T15:43:58;100913.44;;;10.06;100.00
47260;BME280;32999;52.412;4.890;2024-03-08T15:49:01;100837.47;;;9.57;100.00
47260;BME280;32999;52.412;4.890;2024-03-08T15:54:07;100897.66;;;9.97;100.00
47260;BME280;32999;52.412;4.890;2024-03-08T15:59:15;100841.19;;;9.47;100.00
47260;BME280;32999;52.412;4.890;2024-03-08T16:04:18;100871.59;;;9.84;100.00
47260;BME280;32999;52.412;4.890;2024-03-08T16:09:22;100827.50;;;9.50;100.00
47260;BME280;32999;52.412;4.890;2024-03-08T16:14:36;100879.50;;;9.92;100.00
47260;BME280;32999;52.412;4.890;2024-03-08T16:31:49;100819.88;;;9.25;100.00
47260;BME280;32999;52.412;4.890;2024-03-08T16:37:21;100761.66;;;8.91;100.00
47260;BME280;32999;52.412;4.890;2024-03-08T17:34:30;100854.16;;;8.27;100.00
47260;BME280;32999;52.412;4.890;2024-03-08T17:39:37;100861.16;;;8.28;100.00
47260;BME280;32999;52.412;4.890;2024-03-08T17:44:38;100739.13;;;7.21;100.00
47260;BME280;32999;52.412;4.890;2024-03-08T17:49:42;100861.91;;;7.81;100.00
47260;BME280;32999;52.412;4.890;2024-03-08T17:54:46;100845.13;;;7.89;100.00
47260;BME280;32999;52.412;4.890;2024-03-08T17:59:54;100757.56;;;7.22;100.00
47260;BME280;32999;52.412;4.890;2024-03-08T18:04:59;100812.25;;;7.33;100.00
47260;BME280;32999;52.412;4.890;2024-03-08T18:10:05;100789.28;;;6.99;100.00
47260;BME280;32999;52.412;4.890;2024-03-08T18:15:08;100849.47;;;7.33;100.00
47260;BME280;32999;52.412;4.890;2024-03-08T18:20:11;100848.44;;;7.26;100.00
47260;BME280;32999;52.412;4.890;2024-03-08T18:25:15;100839.31;;;7.36;100.00
47260;BME280;32999;52.412;4.890;2024-03-08T18:30:18;100740.13;;;6.79;100.00
47260;BME280;32999;52.412;4.890;2024-03-08T18:35:22;100815.53;;;7.10;100.00
47260;BME280;32999;52.412;4.890;2024-03-08T18:40:24;100732.78;;;6.57;100.00
47260;BME280;32999;52.412;4.890;2024-03-08T18:45:36;100828.16;;;7.08;100.00
47260;BME280;32999;52.412;4.890;2024-03-08T18:50:40;100812.72;;;7.04;100.00
47260;BME280;32999;52.412;4.890;2024-03-08T18:55:45;100811.03;;;7.03;100.00
47260;BME280;32999;52.412;4.890;2024-03-08T19:00:47;100806.22;;;6.90;100.00
47260;BME280;32999;52.412;4.890;2024-03-08T19:05:54;100739.56;;;6.43;100.00
47260;BME280;32999;52.412;4.890;2024-03-08T19:10:55;100811.03;;;6.87;100.00
47260;BME280;32999;52.412;4.890;2024-03-08T19:16:05;100703.97;;;6.20;100.00
47260;BME280;32999;52.412;4.890;2024-03-08T19:21:17;100660.69;;;5.69;100.00
47260;BME280;32999;52.412;4.890;2024-03-08T19:26:39;100688.38;;;6.08;100.00
47260;BME280;32999;52.412;4.890;2024-03-08T19:31:47;100678.75;;;5.73;100.00
47260;BME280;32999;52.412;4.890;2024-03-08T19:36:55;100679.03;;;5.62;100.00
47260;BME280;32999;52.412;4.890;2024-03-08T19:42:20;100733.94;;;5.78;100.00
47260;BME280;32999;52.412;4.890;2024-03-08T19:47:53;100703.06;;;5.95;100.00
47260;BME280;32999;52.412;4.890;2024-03-08T19:59:33;100722.38;;;6.13;100.00
47260;BME280;32999;52.412;4.890;2024-03-08T20:09:52;100636.38;;;5.47;100.00
47260;BME280;32999;52.412;4.890;2024-03-08T20:15:12;100730.06;;;6.32;100.00
47260;BME280;32999;52.412;4.890;2024-03-08T20:20:14;100639.44;;;5.61;100.00
47260;BME280;32999;52.412;4.890;2024-03-08T20:25:18;100748.31;;;6.35;100.00
47260;BME280;32999;52.412;4.890;2024-03-08T20:30:23;100737.91;;;6.42;100.00
47260;BME280;32999;52.412;4.890;2024-03-08T20:35:27;100728.97;;;6.59;100.00
47260;BME280;32999;52.412;4.890;2024-03-08T20:40:29;100773.75;;;6.54;100.00
47260;BME280;32999;52.412;4.890;2024-03-08T20:45:51;100594.56;;;5.67;100.00
47260;BME280;32999;52.412;4.890;2024-03-08T20:51:17;100582.13;;;5.68;100.00
47260;BME280;32999;52.412;4.890;2024-03-08T21:02:04;100657.47;;;5.99;100.00
47260;BME280;32999;52.412;4.890;2024-03-08T21:08:00;100555.09;;;5.64;100.00
47260;BME280;32999;52.412;4.890;2024-03-08T21:13:07;100664.88;;;6.46;100.00
47260;BME280;32999;52.412;4.890;2024-03-08T21:18:13;100667.84;;;6.19;100.00
47260;BME280;32999;52.412;4.890;2024-03-08T21:23:15;100730.78;;;6.42;100.00
47260;BME280;32999;52.412;4.890;2024-03-08T21:39:49;100608.41;;;5.95;100.00
47260;BME280;32999;52.412;4.890;2024-03-08T22:01:40;100584.22;;;5.90;100.00
47260;BME280;32999;52.412;4.890;2024-03-08T22:42:57;100588.97;;;5.87;100.00
47260;BME280;32999;52.412;4.890;2024-03-08T22:48:15;100635.63;;;6.05;100.00
47260;BME280;32999;52.412;4.890;2024-03-08T22:53:25;100644.59;;;6.12;100.00
47260;BME280;32999;52.412;4.890;2024-03-08T22:58:31;100504.66;;;5.40;100.00
47260;BME280;32999;52.412;4.890;2024-03-08T23:03:37;100669.31;;;6.21;100.00
47260;BME280;32999;52.412;4.890;2024-03-08T23:08:39;100503.38;;;5.44;100.00
47260;BME280;32999;52.412;4.890;2024-03-08T23:13:47;100577.84;;;5.83;100.00
47260;BME280;32999;52.412;4.890;2024-03-08T23:18:51;100638.97;;;6.24;100.00
47260;BME280;32999;52.412;4.890;2024-03-08T23:23:55;100501.63;;;5.19;100.00
47260;BME280;32999;52.412;4.890;2024-03-08T23:29:01;100609.34;;;5.86;100.00
47260;BME280;32999;52.412;4.890;2024-03-08T23:34:03;100619.59;;;5.81;100.00
47260;BME280;32999;52.412;4.890;2024-03-08T23:39:07;100613.47;;;5.80;100.00
47260;BME280;32999;52.412;4.890;2024-03-08T23:44:13;100602.38;;;5.85;100.00
47260;BME280;32999;52.412;4.890;2024-03-08T23:49:15;100600.28;;;5.55;100.00
47260;BME280;32999;52.412;4.890;2024-03-08T23:54:18;100564.72;;;5.65;100.00
47260;BME280;32999;52.412;4.890;2024-03-08T23:59:24;100610.16;;;5.78;100.00
